createdAt,value
2022-12-26T00:00:03.375Z,1000.53
2022-12-26T00:01:03.763Z,1000.47
2022-12-26T00:02:03.077Z,1000.52
2022-12-26T00:03:02.802Z,1000.57
2022-12-26T00:04:02.527Z,1000.60
2022-12-26T00:05:02.681Z,1000.55
2022-12-26T00:06:02.538Z,1000.49
2022-12-26T00:07:02.054Z,1000.49
2022-12-26T00:08:02.323Z,1000.41
2022-12-26T00:09:02.278Z,1000.48
2022-12-26T00:10:02.699Z,1000.46
2022-12-26T00:11:02.248Z,1000.52
2022-12-26T00:12:03.520Z,1000.57
2022-12-26T00:13:38.570Z,1000.55
2022-12-26T00:14:03.406Z,1000.64
2022-12-26T00:15:03.057Z,1000.58
2022-12-26T00:16:02.946Z,1000.47
2022-12-26T00:17:02.443Z,1000.56
2022-12-26T00:18:03.045Z,1000.53
2022-12-26T00:19:02.610Z,1000.50
2022-12-26T00:20:02.493Z,1000.49
2022-12-26T00:21:03.052Z,1000.51
2022-12-26T00:22:02.620Z,1000.49
2022-12-26T00:23:03.143Z,1000.47
2022-12-26T00:24:02.859Z,1000.54
2022-12-26T00:25:03.153Z,1000.55
2022-12-26T00:26:02.690Z,1000.70
2022-12-26T00:27:02.294Z,1000.72
2022-12-26T00:28:02.209Z,1000.71
2022-12-26T00:29:02.804Z,1000.71
2022-12-26T00:30:02.801Z,1000.75
2022-12-26T00:31:02.445Z,1000.69
2022-12-26T00:32:02.760Z,1000.75
2022-12-26T00:33:02.348Z,1000.72
2022-12-26T00:34:02.439Z,1000.73
2022-12-26T00:35:02.212Z,1000.69
2022-12-26T00:36:02.764Z,1000.65
2022-12-26T00:37:02.433Z,1000.65
2022-12-26T00:38:02.310Z,1000.66
2022-12-26T00:39:02.843Z,1000.67
2022-12-26T00:40:02.690Z,1000.68
2022-12-26T00:41:02.304Z,1000.66
2022-12-26T00:42:02.820Z,1000.61
2022-12-26T00:43:02.751Z,1000.64
2022-12-26T00:44:03.433Z,1000.68
2022-12-26T00:45:03.179Z,1000.61
2022-12-26T00:46:03.116Z,1000.62
2022-12-26T00:47:03.085Z,1000.59
2022-12-26T00:48:02.868Z,1000.61
2022-12-26T00:49:03.356Z,1000.65
2022-12-26T00:50:13.677Z,1000.66
2022-12-26T00:51:03.186Z,1000.59
2022-12-26T00:52:03.506Z,1000.61
2022-12-26T00:53:03.219Z,1000.59
2022-12-26T00:54:03.127Z,1000.73
2022-12-26T00:55:03.336Z,1000.69
2022-12-26T00:56:03.164Z,1000.68
2022-12-26T00:57:02.809Z,1000.65
2022-12-26T00:58:02.713Z,1000.62
2022-12-26T00:59:02.624Z,1000.64
2022-12-26T01:00:03.167Z,1000.69
2022-12-26T01:01:02.785Z,1000.65
2022-12-26T01:02:02.536Z,1000.64
2022-12-26T01:03:02.338Z,1000.64
2022-12-26T01:04:02.225Z,1000.67
2022-12-26T01:05:02.683Z,1000.64
2022-12-26T01:06:02.284Z,1000.68
2022-12-26T01:07:02.803Z,1000.69
2022-12-26T01:08:21.849Z,1000.71
2022-12-26T01:09:02.716Z,1000.76
2022-12-26T01:10:02.795Z,1000.74
2022-12-26T01:11:02.701Z,1000.80
2022-12-26T01:12:02.385Z,1000.78
2022-12-26T01:13:02.591Z,1000.79
2022-12-26T01:14:02.487Z,1000.77
2022-12-26T01:15:02.072Z,1000.83
2022-12-26T01:16:02.696Z,1000.75
2022-12-26T01:17:02.686Z,1000.83
2022-12-26T01:18:02.342Z,1000.85
2022-12-26T01:19:02.420Z,1000.96
2022-12-26T01:20:02.297Z,1000.91
2022-12-26T01:21:02.274Z,1000.96
2022-12-26T01:22:02.762Z,1001.04
2022-12-26T01:23:02.706Z,1001.16
2022-12-26T01:24:02.603Z,1001.15
2022-12-26T01:25:02.494Z,1001.22
2022-12-26T01:26:17.604Z,1001.21
2022-12-26T01:27:02.662Z,1001.21
2022-12-26T01:28:03.236Z,1001.20
2022-12-26T01:29:03.109Z,1001.15
2022-12-26T01:30:02.909Z,1001.20
2022-12-26T01:31:02.813Z,1001.15
2022-12-26T01:32:02.438Z,1001.15
2022-12-26T01:33:02.096Z,1001.15
2022-12-26T01:34:02.463Z,1001.15
2022-12-26T01:35:02.383Z,1001.15
2022-12-26T01:36:02.174Z,1001.18
2022-12-26T01:37:02.565Z,1001.16
2022-12-26T01:38:02.367Z,1001.14
2022-12-26T01:39:02.883Z,1001.14
2022-12-26T01:40:02.791Z,1001.18
2022-12-26T01:41:02.645Z,1001.17
2022-12-26T01:42:03.118Z,1001.20
2022-12-26T01:43:03.188Z,1001.21
2022-12-26T01:44:03.010Z,1001.21
2022-12-26T01:45:02.900Z,1001.22
2022-12-26T01:46:03.516Z,1001.23
2022-12-26T01:47:02.917Z,1001.21
2022-12-26T01:48:02.603Z,1001.21
2022-12-26T01:49:02.787Z,1001.25
2022-12-26T01:50:02.988Z,1001.17
2022-12-26T01:51:02.738Z,1001.24
2022-12-26T01:52:03.299Z,1001.19
2022-12-26T01:53:03.159Z,1001.22
2022-12-26T01:54:39.812Z,1001.19
2022-12-26T01:55:03.220Z,1001.21
2022-12-26T01:56:03.142Z,1001.19
2022-12-26T01:57:02.748Z,1001.13
2022-12-26T01:58:02.450Z,1001.03
2022-12-26T01:59:02.276Z,1001.05
2022-12-26T02:00:02.856Z,1001.12
2022-12-26T02:01:02.605Z,1001.14
2022-12-26T02:02:02.422Z,1001.17
2022-12-26T02:03:01.890Z,1001.14
2022-12-26T02:04:01.767Z,1001.13
2022-12-26T02:05:02.317Z,1001.16
2022-12-26T02:06:01.822Z,1001.12
2022-12-26T02:07:02.368Z,1001.10
2022-12-26T02:08:01.992Z,1001.14
2022-12-26T02:09:02.254Z,1001.13
2022-12-26T02:10:01.902Z,1001.11
2022-12-26T02:11:01.831Z,1001.17
2022-12-26T02:12:35.986Z,1001.17
2022-12-26T02:13:02.229Z,1001.13
2022-12-26T02:14:02.130Z,1001.15
2022-12-26T02:15:01.864Z,1001.20
2022-12-26T02:16:02.161Z,1001.15
2022-12-26T02:17:02.401Z,1001.18
2022-12-26T02:18:02.273Z,1001.15
2022-12-26T02:19:02.795Z,1001.21
2022-12-26T02:20:02.419Z,1001.16
2022-12-26T02:21:02.257Z,1001.28
2022-12-26T02:22:02.355Z,1001.28
2022-12-26T02:23:02.816Z,1001.26
2022-12-26T02:24:02.699Z,1001.29
2022-12-26T02:25:02.494Z,1001.34
2022-12-26T02:26:02.633Z,1001.41
2022-12-26T02:27:03.087Z,1001.37
2022-12-26T02:28:02.908Z,1001.40
2022-12-26T02:29:02.823Z,1001.39
2022-12-26T02:30:02.682Z,1001.38
2022-12-26T02:31:03.234Z,1001.35
2022-12-26T02:32:02.297Z,1001.34
2022-12-26T02:33:02.242Z,1001.34
2022-12-26T02:34:02.697Z,1001.35
2022-12-26T02:35:02.556Z,1001.32
2022-12-26T02:36:02.336Z,1001.29
2022-12-26T02:37:02.962Z,1001.32
2022-12-26T02:38:02.612Z,1001.30
2022-12-26T02:39:02.563Z,1001.29
2022-12-26T02:40:02.455Z,1001.27
2022-12-26T02:41:02.520Z,1001.26
2022-12-26T02:42:03.083Z,1001.26
2022-12-26T02:43:02.685Z,1001.20
2022-12-26T02:44:02.523Z,1001.20
2022-12-26T02:45:02.897Z,1001.13
2022-12-26T02:46:02.569Z,1001.15
2022-12-26T02:47:03.303Z,1001.13
2022-12-26T02:48:03.227Z,1001.25
2022-12-26T02:49:02.927Z,1001.29
2022-12-26T02:50:02.790Z,1001.41
2022-12-26T02:51:03.293Z,1001.40
2022-12-26T02:52:02.188Z,1001.51
2022-12-26T02:53:02.101Z,1001.46
2022-12-26T02:54:02.019Z,1001.51
2022-12-26T02:55:02.224Z,1001.48
2022-12-26T02:56:02.352Z,1001.51
2022-12-26T02:57:02.208Z,1001.49
2022-12-26T02:58:02.608Z,1001.48
2022-12-26T02:59:02.796Z,1001.42
2022-12-26T03:00:02.580Z,1001.43
2022-12-26T03:01:03.020Z,1001.39
2022-12-26T03:02:03.399Z,1001.45
2022-12-26T03:03:03.260Z,1001.44
2022-12-26T03:04:02.908Z,1001.37
2022-12-26T03:05:02.747Z,1001.48
2022-12-26T03:06:02.893Z,1001.48
2022-12-26T03:07:01.849Z,1001.44
2022-12-26T03:08:02.490Z,1001.43
2022-12-26T03:09:02.059Z,1001.36
2022-12-26T03:10:01.874Z,1001.40
2022-12-26T03:11:02.349Z,1001.37
2022-12-26T03:12:02.211Z,1001.38
2022-12-26T03:13:02.624Z,1001.42
2022-12-26T03:14:02.454Z,1001.39
2022-12-26T03:15:02.203Z,1001.40
2022-12-26T03:16:02.699Z,1001.39
2022-12-26T03:17:02.459Z,1001.37
2022-12-26T03:18:02.941Z,1001.40
2022-12-26T03:19:02.513Z,1001.41
2022-12-26T03:20:02.535Z,1001.35
2022-12-26T03:21:02.406Z,1001.39
2022-12-26T03:22:01.943Z,1001.30
2022-12-26T03:23:02.385Z,1001.40
2022-12-26T03:24:02.015Z,1001.36
2022-12-26T03:25:02.558Z,1001.47
2022-12-26T03:26:02.121Z,1001.48
2022-12-26T03:27:02.602Z,1001.39
2022-12-26T03:28:02.608Z,1001.41
2022-12-26T03:29:02.981Z,1001.44
2022-12-26T03:30:02.671Z,1001.38
2022-12-26T03:31:03.175Z,1001.39
2022-12-26T03:32:01.918Z,1001.37
2022-12-26T03:33:02.013Z,1001.35
2022-12-26T03:34:01.779Z,1001.27
2022-12-26T03:35:02.312Z,1001.30
2022-12-26T03:36:02.214Z,1001.18
2022-12-26T03:37:02.242Z,1001.19
2022-12-26T03:38:02.171Z,1001.20
2022-12-26T03:39:01.987Z,1001.19
2022-12-26T03:40:02.024Z,1001.18
2022-12-26T03:41:02.413Z,1001.18
2022-12-26T03:42:02.312Z,1001.24
2022-12-26T03:43:02.208Z,1001.27
2022-12-26T03:44:02.446Z,1001.34
2022-12-26T03:45:02.708Z,1001.45
2022-12-26T03:46:02.326Z,1001.43
2022-12-26T03:47:01.915Z,1001.48
2022-12-26T03:48:01.883Z,1001.42
2022-12-26T03:49:02.350Z,1001.40
2022-12-26T03:50:01.925Z,1001.42
2022-12-26T03:51:01.988Z,1001.42
2022-12-26T03:52:02.621Z,1001.47
2022-12-26T03:53:02.744Z,1001.48
2022-12-26T03:54:02.591Z,1001.45
2022-12-26T03:55:02.813Z,1001.44
2022-12-26T03:56:02.707Z,1001.38
2022-12-26T03:57:02.059Z,1001.43
2022-12-26T03:58:02.577Z,1001.42
2022-12-26T03:59:02.475Z,1001.44
2022-12-26T04:00:02.393Z,1001.44
2022-12-26T04:01:02.325Z,1001.52
2022-12-26T04:02:03.081Z,1001.48
2022-12-26T04:03:02.700Z,1001.48
2022-12-26T04:04:03.354Z,1001.48
2022-12-26T04:05:03.157Z,1001.46
2022-12-26T04:06:03.180Z,1001.42
2022-12-26T04:07:03.454Z,1001.32
2022-12-26T04:08:02.899Z,1001.33
2022-12-26T04:09:03.346Z,1001.26
2022-12-26T04:10:03.132Z,1001.28
2022-12-26T04:11:03.037Z,1001.28
2022-12-26T04:12:03.080Z,1001.30
2022-12-26T04:13:03.095Z,1001.33
2022-12-26T04:14:03.422Z,1001.34
2022-12-26T04:15:03.229Z,1001.37
2022-12-26T04:16:03.409Z,1001.42
2022-12-26T04:17:03.346Z,1001.48
2022-12-26T04:18:03.329Z,1001.57
2022-12-26T04:19:03.522Z,1001.57
2022-12-26T04:20:03.391Z,1001.57
2022-12-26T04:21:03.213Z,1001.62
2022-12-26T04:22:02.798Z,1001.67
2022-12-26T04:23:02.924Z,1001.70
2022-12-26T04:24:02.850Z,1001.66
2022-12-26T04:25:02.561Z,1001.66
2022-12-26T04:26:03.079Z,1001.71
2022-12-26T04:27:02.969Z,1001.65
2022-12-26T04:28:02.807Z,1001.70
2022-12-26T04:29:03.230Z,1001.68
2022-12-26T04:30:02.814Z,1001.73
2022-12-26T04:31:02.725Z,1001.70
2022-12-26T04:32:03.423Z,1001.67
2022-12-26T04:33:03.659Z,1001.65
2022-12-26T04:34:03.227Z,1001.58
2022-12-26T04:35:03.194Z,1001.65
2022-12-26T04:36:03.134Z,1001.66
2022-12-26T04:37:03.000Z,1001.68
2022-12-26T04:38:03.007Z,1001.63
2022-12-26T04:39:03.077Z,1001.56
2022-12-26T04:40:02.634Z,1001.50
2022-12-26T04:41:02.512Z,1001.49
2022-12-26T04:42:03.022Z,1001.55
2022-12-26T04:43:47.162Z,1001.54
2022-12-26T04:44:02.769Z,1001.59
2022-12-26T04:45:02.668Z,1001.63
2022-12-26T04:46:03.294Z,1001.76
2022-12-26T04:47:02.361Z,1001.80
2022-12-26T04:48:02.858Z,1001.76
2022-12-26T04:49:02.900Z,1001.77
2022-12-26T04:50:02.582Z,1001.67
2022-12-26T04:51:02.447Z,1001.66
2022-12-26T04:52:03.011Z,1001.67
2022-12-26T04:53:02.631Z,1001.59
2022-12-26T04:54:03.141Z,1001.65
2022-12-26T04:55:03.027Z,1001.67
2022-12-26T04:56:02.816Z,1001.65
2022-12-26T04:57:03.132Z,1001.70
2022-12-26T04:58:02.896Z,1001.67
2022-12-26T04:59:03.383Z,1001.75
2022-12-26T05:00:02.931Z,1001.73
2022-12-26T05:01:03.116Z,1001.76
2022-12-26T05:02:02.828Z,1001.73
2022-12-26T05:03:02.489Z,1001.78
2022-12-26T05:04:02.509Z,1001.79
2022-12-26T05:05:02.869Z,1001.79
2022-12-26T05:06:02.453Z,1001.86
2022-12-26T05:07:03.064Z,1001.82
2022-12-26T05:08:02.990Z,1001.80
2022-12-26T05:09:02.835Z,1001.78
2022-12-26T05:10:02.661Z,1001.69
2022-12-26T05:11:03.136Z,1001.67
2022-12-26T05:12:02.527Z,1001.65
2022-12-26T05:13:02.405Z,1001.66
2022-12-26T05:14:02.222Z,1001.67
2022-12-26T05:15:02.030Z,1001.70
2022-12-26T05:16:02.559Z,1001.67
2022-12-26T05:17:02.871Z,1001.65
2022-12-26T05:18:02.781Z,1001.64
2022-12-26T05:19:02.578Z,1001.65
2022-12-26T05:20:02.537Z,1001.63
2022-12-26T05:21:02.952Z,1001.65
2022-12-26T05:22:02.238Z,1001.68
2022-12-26T05:23:02.236Z,1001.72
2022-12-26T05:24:02.068Z,1001.75
2022-12-26T05:25:01.950Z,1001.76
2022-12-26T05:26:01.824Z,1001.78
2022-12-26T05:27:02.485Z,1001.84
2022-12-26T05:28:02.120Z,1001.79
2022-12-26T05:29:01.917Z,1001.77
2022-12-26T05:30:02.555Z,1001.81
2022-12-26T05:31:02.259Z,1001.81
2022-12-26T05:32:02.904Z,1001.79
2022-12-26T05:33:02.529Z,1001.81
2022-12-26T05:34:02.427Z,1001.75
2022-12-26T05:35:02.922Z,1001.72
2022-12-26T05:36:02.594Z,1001.75
2022-12-26T05:37:03.132Z,1001.65
2022-12-26T05:38:02.756Z,1001.61
2022-12-26T05:39:02.598Z,1001.64
2022-12-26T05:40:03.194Z,1001.67
2022-12-26T05:41:02.782Z,1001.74
2022-12-26T05:42:02.948Z,1001.75
2022-12-26T05:43:02.977Z,1001.72
2022-12-26T05:44:03.096Z,1001.74
2022-12-26T05:45:03.027Z,1001.73
2022-12-26T05:46:03.045Z,1001.73
2022-12-26T05:47:02.512Z,1001.71
2022-12-26T05:48:02.162Z,1001.74
2022-12-26T05:49:01.991Z,1001.72
2022-12-26T05:50:02.329Z,1001.66
2022-12-26T05:51:02.345Z,1001.68
2022-12-26T05:52:02.997Z,1001.69
2022-12-26T05:53:02.540Z,1001.67
2022-12-26T05:54:02.623Z,1001.71
2022-12-26T05:55:02.447Z,1001.69
2022-12-26T05:56:02.901Z,1001.74
2022-12-26T05:57:03.120Z,1001.69
2022-12-26T05:58:02.693Z,1001.77
2022-12-26T05:59:02.787Z,1001.82
2022-12-26T06:00:03.156Z,1001.82
2022-12-26T06:01:02.603Z,1001.85
2022-12-26T06:02:03.938Z,1001.84
2022-12-26T06:03:03.779Z,1001.89
2022-12-26T06:04:03.795Z,1001.92
2022-12-26T06:05:03.452Z,1001.95
2022-12-26T06:06:03.181Z,1001.93
2022-12-26T06:07:02.843Z,1001.91
2022-12-26T06:08:03.485Z,1001.88
2022-12-26T06:09:03.114Z,1001.85
2022-12-26T06:10:02.920Z,1001.86
2022-12-26T06:11:03.045Z,1001.87
2022-12-26T06:12:03.550Z,1001.94
2022-12-26T06:13:03.016Z,1001.90
2022-12-26T06:14:03.522Z,1001.91
2022-12-26T06:15:03.050Z,1001.93
2022-12-26T06:16:03.144Z,1001.90
2022-12-26T06:17:02.985Z,1001.93
2022-12-26T06:18:03.237Z,1001.91
2022-12-26T06:19:03.019Z,1001.94
2022-12-26T06:20:03.439Z,1001.88
2022-12-26T06:21:03.570Z,1001.96
2022-12-26T06:22:03.637Z,1001.97
2022-12-26T06:23:03.268Z,1002.02
2022-12-26T06:24:03.412Z,1002.01
2022-12-26T06:25:03.203Z,1002.03
2022-12-26T06:26:03.707Z,1002.02
2022-12-26T06:27:02.659Z,1002.04
2022-12-26T06:28:02.821Z,1002.07
2022-12-26T06:29:02.559Z,1002.14
2022-12-26T06:30:03.183Z,1002.17
2022-12-26T06:31:02.897Z,1002.17
2022-12-26T06:32:02.761Z,1002.18
2022-12-26T06:33:03.312Z,1002.13
2022-12-26T06:34:02.909Z,1002.15
2022-12-26T06:35:02.652Z,1002.16
2022-12-26T06:36:03.050Z,1002.22
2022-12-26T06:37:02.991Z,1002.17
2022-12-26T06:38:02.899Z,1002.16
2022-12-26T06:39:03.198Z,1002.16
2022-12-26T06:40:02.931Z,1002.16
2022-12-26T06:41:03.457Z,1002.16
2022-12-26T06:42:03.065Z,1002.10
2022-12-26T06:43:03.447Z,1002.20
2022-12-26T06:44:03.301Z,1002.26
2022-12-26T06:45:03.053Z,1002.29
2022-12-26T06:46:03.403Z,1002.31
2022-12-26T06:47:03.360Z,1002.39
2022-12-26T06:48:03.598Z,1002.40
2022-12-26T06:49:03.307Z,1002.49
2022-12-26T06:50:03.274Z,1002.48
2022-12-26T06:51:03.889Z,1002.40
2022-12-26T06:52:02.601Z,1002.58
2022-12-26T06:53:02.995Z,1002.55
2022-12-26T06:54:02.827Z,1002.64
2022-12-26T06:55:02.691Z,1002.52
2022-12-26T06:56:03.138Z,1002.41
2022-12-26T06:57:02.897Z,1002.48
2022-12-26T06:58:02.747Z,1002.47
2022-12-26T06:59:03.226Z,1002.52
2022-12-26T07:00:03.010Z,1002.48
2022-12-26T07:01:03.167Z,1002.56
2022-12-26T07:02:02.864Z,1002.51
2022-12-26T07:03:02.534Z,1002.41
2022-12-26T07:04:02.361Z,1002.37
2022-12-26T07:05:02.208Z,1002.40
2022-12-26T07:06:02.781Z,1002.30
2022-12-26T07:07:02.348Z,1002.32
2022-12-26T07:08:02.170Z,1002.34
2022-12-26T07:09:02.739Z,1002.37
2022-12-26T07:10:02.650Z,1002.26
2022-12-26T07:11:02.455Z,1002.26
2022-12-26T07:12:02.660Z,1002.34
2022-12-26T07:13:02.579Z,1002.32
2022-12-26T07:14:03.117Z,1002.36
2022-12-26T07:15:02.684Z,1002.44
2022-12-26T07:16:03.201Z,1002.42
2022-12-26T07:17:02.832Z,1002.41
2022-12-26T07:18:02.672Z,1002.43
2022-12-26T07:19:03.441Z,1002.42
2022-12-26T07:20:02.997Z,1002.45
2022-12-26T07:21:02.828Z,1002.38
2022-12-26T07:22:02.442Z,1002.44
2022-12-26T07:23:02.386Z,1002.48
2022-12-26T07:24:02.320Z,1002.40
2022-12-26T07:25:02.563Z,1002.44
2022-12-26T07:26:02.518Z,1002.46
2022-12-26T07:27:02.113Z,1002.45
2022-12-26T07:28:01.986Z,1002.47
2022-12-26T07:29:01.866Z,1002.53
2022-12-26T07:30:02.498Z,1002.50
2022-12-26T07:31:02.352Z,1002.59
2022-12-26T07:32:02.354Z,1002.62
2022-12-26T07:33:02.261Z,1002.67
2022-12-26T07:34:02.518Z,1002.65
2022-12-26T07:35:02.247Z,1002.71
2022-12-26T07:36:02.163Z,1002.74
2022-12-26T07:37:02.797Z,1002.77
2022-12-26T07:38:02.650Z,1002.77
2022-12-26T07:39:02.533Z,1002.84
2022-12-26T07:40:03.001Z,1002.87
2022-12-26T07:41:02.870Z,1002.87
2022-12-26T07:42:02.819Z,1002.90
2022-12-26T07:43:02.745Z,1002.86
2022-12-26T07:44:02.656Z,1002.83
2022-12-26T07:45:02.587Z,1002.80
2022-12-26T07:46:02.634Z,1002.79
2022-12-26T07:47:02.445Z,1002.88
2022-12-26T07:48:02.053Z,1002.80
2022-12-26T07:49:02.636Z,1002.77
2022-12-26T07:50:02.550Z,1002.76
2022-12-26T07:51:02.547Z,1002.81
2022-12-26T07:52:02.532Z,1002.83
2022-12-26T07:53:02.311Z,1002.80
2022-12-26T07:54:05.629Z,1002.78
2022-12-26T07:55:02.813Z,1002.76
2022-12-26T07:56:02.180Z,1002.84
2022-12-26T07:57:46.092Z,1002.88
2022-12-26T07:58:02.724Z,1002.85
2022-12-26T07:59:02.880Z,1002.86
2022-12-26T08:00:02.800Z,1002.83
2022-12-26T08:01:02.664Z,1002.86
2022-12-26T08:02:02.519Z,1002.86
2022-12-26T08:03:07.355Z,1002.91
2022-12-26T08:04:02.494Z,1002.85
2022-12-26T08:05:02.448Z,1002.89
2022-12-26T08:06:02.404Z,1002.93
2022-12-26T08:07:02.102Z,1002.99
2022-12-26T08:08:01.845Z,1003.00
2022-12-26T08:09:01.665Z,1003.01
2022-12-26T08:10:02.188Z,1003.08
2022-12-26T08:11:02.145Z,1003.14
2022-12-26T08:12:02.675Z,1003.15
2022-12-26T08:13:02.641Z,1003.17
2022-12-26T08:14:02.569Z,1003.12
2022-12-26T08:15:02.552Z,1003.03
2022-12-26T08:16:02.514Z,1003.12
2022-12-26T08:17:02.225Z,1003.12
2022-12-26T08:18:02.157Z,1003.11
2022-12-26T08:19:02.144Z,1003.13
2022-12-26T08:20:02.062Z,1003.08
2022-12-26T08:21:01.815Z,1003.17
2022-12-26T08:22:02.452Z,1003.23
2022-12-26T08:23:02.467Z,1003.26
2022-12-26T08:24:02.435Z,1003.35
2022-12-26T08:25:02.447Z,1003.29
2022-12-26T08:26:02.451Z,1003.30
2022-12-26T08:27:02.201Z,1003.36
2022-12-26T08:28:01.940Z,1003.39
2022-12-26T08:29:01.609Z,1003.35
2022-12-26T08:30:02.189Z,1003.49
2022-12-26T08:31:02.102Z,1003.53
2022-12-26T08:32:02.711Z,1003.35
2022-12-26T08:33:02.495Z,1003.34
2022-12-26T08:34:02.207Z,1003.31
2022-12-26T08:35:02.327Z,1003.25
2022-12-26T08:36:02.427Z,1003.30
2022-12-26T08:37:02.040Z,1003.33
2022-12-26T08:38:02.105Z,1003.30
2022-12-26T08:39:01.911Z,1003.38
2022-12-26T08:40:01.938Z,1003.38
2022-12-26T08:41:01.794Z,1003.45
2022-12-26T08:42:02.265Z,1003.44
2022-12-26T08:43:22.081Z,1003.41
2022-12-26T08:44:26.904Z,1003.34
2022-12-26T08:45:01.705Z,1003.29
2022-12-26T08:46:02.109Z,1003.31
2022-12-26T08:47:01.733Z,1003.29
2022-12-26T08:48:02.204Z,1003.17
2022-12-26T08:49:02.107Z,1003.23
2022-12-26T08:50:02.047Z,1003.33
2022-12-26T08:51:02.168Z,1003.29
2022-12-26T08:52:02.764Z,1003.28
2022-12-26T08:53:02.466Z,1003.27
2022-12-26T08:54:02.396Z,1003.27
2022-12-26T08:55:02.721Z,1003.29
2022-12-26T08:56:02.397Z,1003.32
2022-12-26T08:57:03.067Z,1003.33
2022-12-26T08:58:02.935Z,1003.37
2022-12-26T08:59:03.010Z,1003.29
2022-12-26T09:00:02.760Z,1003.34
2022-12-26T09:01:02.922Z,1003.40
2022-12-26T09:02:02.693Z,1003.56
2022-12-26T09:03:02.603Z,1003.54
2022-12-26T09:04:02.434Z,1003.52
2022-12-26T09:05:02.338Z,1003.52
2022-12-26T09:06:05.832Z,1003.49
2022-12-26T09:07:02.351Z,1003.50
2022-12-26T09:08:02.904Z,1003.45
2022-12-26T09:09:02.708Z,1003.48
2022-12-26T09:10:02.696Z,1003.41
2022-12-26T09:11:02.582Z,1003.46
2022-12-26T09:12:02.353Z,1003.48
2022-12-26T09:13:02.335Z,1003.56
2022-12-26T09:14:02.426Z,1003.54
2022-12-26T09:15:02.607Z,1003.49
2022-12-26T09:16:02.857Z,1003.41
2022-12-26T09:17:01.902Z,1003.38
2022-12-26T09:18:02.103Z,1003.44
2022-12-26T09:19:02.042Z,1003.43
2022-12-26T09:20:01.926Z,1003.52
2022-12-26T09:21:01.789Z,1003.56
2022-12-26T09:22:02.036Z,1003.61
2022-12-26T09:23:02.003Z,1003.63
2022-12-26T09:24:02.582Z,1003.65
2022-12-26T09:25:02.612Z,1003.69
2022-12-26T09:26:02.090Z,1003.71
2022-12-26T09:27:02.203Z,1003.76
2022-12-26T09:28:02.119Z,1003.74
2022-12-26T09:29:02.193Z,1003.72
2022-12-26T09:30:02.253Z,1003.76
2022-12-26T09:31:02.286Z,1003.77
2022-12-26T09:32:01.837Z,1003.79
2022-12-26T09:33:02.363Z,1003.78
2022-12-26T09:34:02.147Z,1003.76
2022-12-26T09:35:02.222Z,1003.85
2022-12-26T09:36:04.679Z,1003.83
2022-12-26T09:37:02.074Z,1003.78
2022-12-26T09:38:02.143Z,1003.86
2022-12-26T09:39:02.493Z,1003.86
2022-12-26T09:40:02.200Z,1003.91
2022-12-26T09:41:02.282Z,1003.92
2022-12-26T09:42:02.641Z,1003.92
2022-12-26T09:43:02.469Z,1003.95
2022-12-26T09:44:02.234Z,1003.94
2022-12-26T09:45:02.170Z,1003.92
2022-12-26T09:46:02.599Z,1004.01
2022-12-26T09:47:02.438Z,1003.96
2022-12-26T09:48:02.773Z,1004.03
2022-12-26T09:49:02.660Z,1003.99
2022-12-26T09:50:02.671Z,1003.99
2022-12-26T09:51:02.602Z,1004.06
2022-12-26T09:52:02.483Z,1004.02
2022-12-26T09:53:02.507Z,1004.03
2022-12-26T09:54:02.414Z,1004.00
2022-12-26T09:55:02.456Z,1004.01
2022-12-26T09:56:02.501Z,1004.03
2022-12-26T09:57:04.020Z,1004.00
2022-12-26T09:58:02.457Z,1004.01
2022-12-26T09:59:02.898Z,1004.05
2022-12-26T10:00:02.408Z,1004.06
2022-12-26T10:01:02.406Z,1004.01
2022-12-26T10:02:03.132Z,1004.01
2022-12-26T10:03:03.108Z,1004.04
2022-12-26T10:04:03.095Z,1003.99
2022-12-26T10:05:03.054Z,1004.02
2022-12-26T10:06:03.398Z,1004.08
2022-12-26T10:07:02.440Z,1004.02
2022-12-26T10:08:02.502Z,1004.07
2022-12-26T10:09:02.398Z,1004.12
2022-12-26T10:10:02.911Z,1004.04
2022-12-26T10:11:02.705Z,1004.06
2022-12-26T10:12:02.578Z,1004.07
2022-12-26T10:13:02.989Z,1004.06
2022-12-26T10:14:02.730Z,1004.04
2022-12-26T10:15:03.062Z,1004.10
2022-12-26T10:16:02.864Z,1004.05
2022-12-26T10:17:03.060Z,1004.11
2022-12-26T10:18:03.434Z,1004.13
2022-12-26T10:19:03.333Z,1004.08
2022-12-26T10:20:03.031Z,1004.11
2022-12-26T10:21:03.426Z,1004.06
2022-12-26T10:22:02.851Z,1004.14
2022-12-26T10:23:02.633Z,1004.09
2022-12-26T10:24:02.664Z,1004.18
2022-12-26T10:25:02.715Z,1004.15
2022-12-26T10:26:03.080Z,1004.20
2022-12-26T10:27:02.811Z,1004.10
2022-12-26T10:28:02.875Z,1004.12
2022-12-26T10:29:02.794Z,1004.16
2022-12-26T10:30:02.742Z,1004.14
2022-12-26T10:31:03.064Z,1004.15
2022-12-26T10:32:03.217Z,1004.06
2022-12-26T10:33:03.230Z,1004.04
2022-12-26T10:34:03.289Z,1004.04
2022-12-26T10:35:03.479Z,1004.00
2022-12-26T10:36:03.278Z,1004.02
2022-12-26T10:37:03.383Z,1004.05
2022-12-26T10:38:03.194Z,1004.03
2022-12-26T10:39:03.195Z,1004.04
2022-12-26T10:40:03.263Z,1003.95
2022-12-26T10:41:03.240Z,1003.92
2022-12-26T10:42:02.485Z,1003.97
2022-12-26T10:43:02.272Z,1003.91
2022-12-26T10:44:02.292Z,1003.94
2022-12-26T10:45:02.249Z,1003.97
2022-12-26T10:46:02.302Z,1003.99
2022-12-26T10:47:03.073Z,1004.04
2022-12-26T10:48:03.049Z,1004.02
2022-12-26T10:49:03.446Z,1004.02
2022-12-26T10:50:03.087Z,1004.12
2022-12-26T10:51:03.062Z,1004.07
2022-12-26T10:52:03.084Z,1004.04
2022-12-26T10:53:03.458Z,1004.11
2022-12-26T10:54:02.823Z,1004.07
2022-12-26T10:55:28.896Z,1004.13
2022-12-26T10:56:03.455Z,1004.15
2022-12-26T10:57:03.136Z,1004.09
2022-12-26T10:58:02.797Z,1004.17
2022-12-26T10:59:03.278Z,1004.18
2022-12-26T11:00:03.340Z,1004.08
2022-12-26T11:01:03.445Z,1004.11
2022-12-26T11:02:06.951Z,1004.08
2022-12-26T11:03:02.704Z,1004.11
2022-12-26T11:04:02.807Z,1004.08
2022-12-26T11:06:10.015Z,1004.03
2022-12-26T11:07:02.517Z,1004.08
2022-12-26T11:08:02.503Z,1004.01
2022-12-26T11:09:02.548Z,1004.06
2022-12-26T11:10:02.548Z,1004.08
2022-12-26T11:11:02.562Z,1004.00
2022-12-26T11:12:02.625Z,1004.10
2022-12-26T11:13:02.683Z,1004.14
2022-12-26T11:14:03.372Z,1004.06
2022-12-26T11:15:02.800Z,1004.15
2022-12-26T11:16:02.842Z,1004.12
2022-12-26T11:17:02.836Z,1004.14
2022-12-26T11:18:02.586Z,1004.13
2022-12-26T11:19:03.145Z,1004.15
2022-12-26T11:20:02.792Z,1004.23
2022-12-26T11:21:05.658Z,1004.18
2022-12-26T11:22:03.312Z,1004.21
2022-12-26T11:23:03.141Z,1004.17
2022-12-26T11:24:02.953Z,1004.24
2022-12-26T11:25:03.588Z,1004.28
2022-12-26T11:26:03.575Z,1004.17
2022-12-26T11:27:04.814Z,1004.15
2022-12-26T11:28:02.718Z,1004.13
2022-12-26T11:29:02.981Z,1004.09
2022-12-26T11:30:02.582Z,1004.16
2022-12-26T11:31:02.862Z,1004.04
2022-12-26T11:32:03.619Z,1003.96
2022-12-26T11:33:08.400Z,1004.02
2022-12-26T11:34:03.517Z,1003.94
2022-12-26T11:35:03.551Z,1004.00
2022-12-26T11:36:03.553Z,1003.98
2022-12-26T11:37:02.425Z,1004.05
2022-12-26T11:38:02.433Z,1003.96
2022-12-26T11:39:02.645Z,1003.99
2022-12-26T11:40:02.614Z,1004.02
2022-12-26T11:41:02.501Z,1003.95
2022-12-26T11:42:02.927Z,1003.93
2022-12-26T11:43:02.932Z,1003.85
2022-12-26T11:44:02.662Z,1003.85
2022-12-26T11:45:02.892Z,1003.88
2022-12-26T11:46:03.088Z,1003.88
2022-12-26T11:47:03.506Z,1003.89
2022-12-26T11:48:03.618Z,1003.84
2022-12-26T11:49:03.303Z,1003.90
2022-12-26T11:50:03.074Z,1003.91
2022-12-26T11:51:03.700Z,1003.90
2022-12-26T11:52:03.213Z,1003.90
2022-12-26T11:53:03.071Z,1003.92
2022-12-26T11:54:02.716Z,1003.90
2022-12-26T11:55:02.773Z,1003.89
2022-12-26T11:56:02.730Z,1003.91
2022-12-26T11:57:02.899Z,1003.92
2022-12-26T11:58:02.583Z,1003.93
2022-12-26T11:59:02.503Z,1003.88
2022-12-26T12:00:02.635Z,1003.89
2022-12-26T12:01:02.592Z,1003.95
2022-12-26T12:02:03.605Z,1003.92
2022-12-26T12:03:03.518Z,1004.00
2022-12-26T12:04:03.473Z,1003.97
2022-12-26T12:05:03.509Z,1003.97
2022-12-26T12:06:03.300Z,1004.02